createdAt,value
2018-06-02T00:00:07.765Z,91.35
2018-06-02T00:02:36.187Z,91.36
2018-06-02T00:05:04.621Z,91.52
2018-06-02T00:07:33.040Z,91.69
2018-06-02T00:10:01.455Z,92.01
2018-06-02T00:12:29.817Z,91.97
2018-06-02T00:14:58.192Z,91.89
2018-06-02T00:17:26.547Z,91.86
2018-06-02T00:19:55.740Z,92.01
2018-06-02T00:22:24.137Z,92.00
2018-06-02T00:24:52.516Z,91.96
2018-06-02T00:27:20.868Z,92.01
2018-06-02T00:29:50.066Z,92.00
2018-06-02T00:32:19.208Z,91.87
2018-06-02T00:34:47.535Z,92.15
2018-06-02T00:37:15.936Z,92.49
2018-06-02T00:39:44.297Z,92.83
2018-06-02T00:42:13.439Z,92.94
2018-06-02T00:44:41.856Z,93.21
2018-06-02T00:47:10.248Z,93.49
2018-06-02T00:49:39.593Z,93.66
2018-06-02T00:52:13.012Z,93.68
2018-06-02T00:54:59.605Z,93.62
2018-06-02T00:57:28.014Z,93.63
2018-06-02T00:59:56.576Z,93.80
2018-06-02T01:02:24.948Z,93.70
2018-06-02T01:04:53.763Z,93.80
2018-06-02T01:07:22.255Z,93.83
2018-06-02T01:09:50.696Z,93.83
2018-06-02T01:12:19.497Z,93.78
2018-06-02T01:14:47.962Z,93.80
2018-06-02T01:17:16.329Z,93.94
2018-06-02T01:19:45.387Z,93.92
2018-06-02T01:22:14.551Z,93.80
2018-06-02T01:24:42.972Z,93.77
2018-06-02T01:27:13.346Z,93.75
2018-06-02T01:29:41.741Z,93.71
2018-06-02T01:32:10.119Z,93.80
2018-06-02T01:34:38.542Z,93.76
2018-06-02T01:37:06.943Z,93.76
2018-06-02T01:39:35.648Z,93.96
2018-06-02T01:42:04.011Z,93.90
2018-06-02T01:44:32.405Z,93.97
2018-06-02T01:47:00.811Z,94.05
2018-06-02T01:49:29.210Z,94.07
2018-06-02T01:51:58.376Z,94.07
2018-06-02T01:54:26.868Z,94.18
2018-06-02T01:56:55.292Z,94.23
2018-06-02T01:59:23.795Z,94.24
2018-06-02T02:01:52.146Z,94.13
2018-06-02T02:04:20.563Z,94.11
2018-06-02T02:06:49.170Z,94.06
2018-06-02T02:09:17.631Z,94.01
2018-06-02T02:11:50.672Z,93.82
2018-06-02T02:14:20.733Z,93.81
2018-06-02T02:16:49.135Z,93.76
2018-06-02T02:19:17.552Z,93.57
2018-06-02T02:21:58.858Z,93.38
2018-06-02T02:24:27.268Z,93.14
2018-06-02T02:26:55.585Z,92.93
2018-06-02T02:29:23.976Z,92.93
2018-06-02T02:31:52.323Z,92.79
2018-06-02T02:34:21.435Z,92.65
2018-06-02T02:36:49.813Z,92.63
2018-06-02T02:39:18.170Z,92.45
2018-06-02T02:41:47.346Z,92.48
2018-06-02T02:44:15.725Z,92.36
2018-06-02T02:46:44.066Z,92.25
2018-06-02T02:49:12.442Z,92.22
2018-06-02T02:51:40.837Z,91.85
2018-06-02T02:54:09.223Z,91.88
2018-06-02T02:56:37.591Z,91.71
2018-06-02T02:59:05.980Z,91.39
2018-06-02T03:01:34.336Z,91.41
2018-06-02T03:04:03.481Z,91.19
2018-06-02T03:06:32.605Z,91.20
2018-06-02T03:09:00.954Z,90.96
2018-06-02T03:11:30.050Z,90.94
2018-06-02T03:13:59.202Z,90.76
2018-06-02T03:16:27.590Z,90.67
2018-06-02T03:18:55.934Z,90.48
2018-06-02T03:21:24.299Z,90.53
2018-06-02T03:23:52.668Z,90.21
2018-06-02T03:26:21.796Z,89.62
2018-06-02T03:28:50.171Z,89.48
2018-06-02T03:31:18.513Z,89.12
2018-06-02T03:33:47.657Z,88.71
2018-06-02T03:36:16.014Z,88.34
2018-06-02T03:38:44.332Z,88.14
2018-06-02T03:41:12.691Z,88.04
2018-06-02T03:43:41.045Z,87.83
2018-06-02T03:46:09.389Z,87.72
2018-06-02T03:48:38.538Z,87.52
2018-06-02T03:51:06.856Z,87.44
2018-06-02T03:53:35.237Z,87.19
2018-06-02T03:56:03.594Z,86.96
2018-06-02T03:58:31.960Z,86.88
2018-06-02T04:01:00.298Z,86.79
2018-06-02T04:03:28.644Z,86.65
2018-06-02T04:05:57.022Z,86.31
2018-06-02T04:08:25.403Z,85.97
2018-06-02T04:10:54.549Z,85.62
2018-06-02T04:13:22.913Z,84.78
2018-06-02T04:15:51.257Z,84.24
2018-06-02T04:18:19.565Z,84.09
2018-06-02T04:20:47.926Z,83.82
2018-06-02T04:23:17.068Z,83.17
2018-06-02T04:25:45.394Z,83.07
2018-06-02T04:28:14.516Z,82.66
2018-06-02T04:30:42.941Z,82.53
2018-06-02T04:33:11.297Z,82.02
2018-06-02T04:35:39.673Z,81.37
2018-06-02T04:38:08.033Z,80.66
2018-06-02T04:40:36.414Z,80.44
2018-06-02T04:43:04.825Z,80.25
2018-06-02T04:45:33.275Z,80.27
2018-06-02T04:48:02.377Z,80.26
2018-06-02T04:50:30.751Z,79.81
2018-06-02T04:53:00.282Z,79.38
2018-06-02T04:55:28.601Z,78.86
2018-06-02T04:57:57.737Z,77.83
2018-06-02T05:00:26.108Z,77.94
2018-06-02T05:02:54.829Z,77.53
2018-06-02T05:05:23.209Z,76.25
2018-06-02T05:07:51.549Z,75.94
2018-06-02T05:10:19.933Z,76.11
2018-06-02T05:12:49.073Z,75.24
2018-06-02T05:15:17.410Z,74.35
2018-06-02T05:17:46.803Z,73.47
2018-06-02T05:20:15.116Z,72.80
2018-06-02T05:22:43.517Z,73.81
2018-06-02T05:25:11.860Z,73.62
2018-06-02T05:27:40.259Z,73.79
2018-06-02T05:30:08.872Z,73.65
2018-06-02T05:32:38.001Z,72.85
2018-06-02T05:35:06.382Z,71.83
2018-06-02T05:37:34.744Z,71.84
2018-06-02T05:40:03.148Z,71.66
2018-06-02T05:42:31.472Z,71.54
2018-06-02T05:45:00.605Z,71.92
2018-06-02T05:47:28.981Z,70.85
2018-06-02T05:49:57.321Z,71.11
2018-06-02T05:52:25.719Z,70.57
2018-06-02T05:54:54.067Z,70.65
2018-06-02T05:57:23.209Z,69.21
2018-06-02T05:59:51.645Z,68.99
2018-06-02T06:02:19.968Z,68.05
2018-06-02T06:04:48.409Z,68.33
2018-06-02T06:07:17.546Z,67.42
2018-06-02T06:09:46.062Z,66.84
2018-06-02T06:12:14.433Z,66.55
2018-06-02T06:14:43.188Z,66.65
2018-06-02T06:17:11.540Z,65.84
2018-06-02T06:19:39.946Z,66.14
2018-06-02T06:22:08.347Z,64.96
2018-06-02T06:24:36.713Z,65.12
2018-06-02T06:27:05.063Z,64.84
2018-06-02T06:29:33.437Z,63.74
2018-06-02T06:32:01.797Z,62.47
2018-06-02T06:34:30.949Z,61.40
2018-06-02T06:36:59.312Z,60.36
2018-06-02T06:39:27.661Z,60.27
2018-06-02T06:41:56.027Z,59.83
2018-06-02T06:44:25.927Z,60.20
2018-06-02T06:46:55.001Z,59.10
2018-06-02T06:49:23.332Z,59.17
2018-06-02T06:51:51.719Z,58.31
2018-06-02T06:54:20.111Z,59.56
2018-06-02T06:56:48.617Z,57.54
2018-06-02T06:59:17.789Z,56.56
2018-06-02T07:01:46.135Z,55.78
2018-06-02T07:04:14.459Z,55.21
2018-06-02T07:06:43.532Z,54.63
2018-06-02T07:09:16.881Z,53.56
2018-06-02T07:11:46.094Z,53.13
2018-06-02T07:14:14.473Z,53.37
2018-06-02T07:16:42.874Z,53.08
2018-06-02T07:19:11.434Z,53.29
2018-06-02T07:21:39.809Z,53.17
2018-06-02T07:24:09.510Z,54.02
2018-06-02T07:26:38.710Z,52.74
2018-06-02T07:29:07.861Z,52.61
2018-06-02T07:31:36.186Z,53.78
2018-06-02T07:34:05.337Z,52.91
2018-06-02T07:36:33.724Z,54.27
2018-06-02T07:39:02.128Z,53.86
2018-06-02T07:41:30.677Z,53.70
2018-06-02T07:44:00.223Z,53.44
2018-06-02T07:46:28.607Z,53.85
2018-06-02T07:48:57.739Z,53.75
2018-06-02T07:51:26.111Z,54.33
2018-06-02T07:53:54.444Z,54.23
2018-06-02T07:56:23.337Z,54.22
2018-06-02T07:58:52.520Z,54.28
2018-06-02T08:01:20.854Z,54.58
2018-06-02T08:03:49.320Z,53.80
2018-06-02T08:06:17.695Z,52.99
2018-06-02T08:08:46.067Z,51.88
2018-06-02T08:11:15.236Z,52.82
2018-06-02T08:13:44.368Z,51.99
2018-06-02T08:16:12.727Z,50.80
2018-06-02T08:18:41.862Z,50.71
2018-06-02T08:21:11.009Z,50.23
2018-06-02T08:23:40.169Z,49.93
2018-06-02T08:26:09.448Z,50.41
2018-06-02T08:28:37.812Z,49.66
2018-06-02T08:31:06.204Z,50.18
2018-06-02T08:33:40.782Z,49.68
2018-06-02T08:36:10.151Z,50.26
2018-06-02T08:38:38.747Z,49.81
2018-06-02T08:41:07.096Z,49.29
2018-06-02T08:43:36.112Z,49.13
2018-06-02T08:46:12.219Z,48.36
2018-06-02T08:48:41.364Z,48.62
2018-06-02T08:51:09.932Z,47.99
2018-06-02T08:53:38.823Z,49.29
2018-06-02T08:56:07.190Z,48.36
2018-06-02T08:58:36.158Z,48.00
2018-06-02T09:01:05.312Z,47.73
2018-06-02T09:03:34.172Z,46.67
2018-06-02T09:06:03.265Z,46.67
2018-06-02T09:08:31.601Z,46.65
2018-06-02T09:11:00.750Z,47.09
2018-06-02T09:13:32.054Z,46.65
2018-06-02T09:16:01.221Z,45.86
2018-06-02T09:18:29.595Z,46.12
2018-06-02T09:20:58.022Z,46.73
2018-06-02T09:23:26.411Z,47.62
2018-06-02T09:25:55.989Z,47.59
2018-06-02T09:28:26.030Z,48.87
2018-06-02T09:30:55.555Z,49.51
2018-06-02T09:33:24.686Z,49.32
2018-06-02T09:35:53.037Z,49.33
2018-06-02T09:38:21.422Z,49.05
2018-06-02T09:40:49.773Z,47.88
2018-06-02T09:43:18.154Z,47.41
2018-06-02T09:45:46.507Z,47.08
2018-06-02T09:48:14.903Z,47.51
2018-06-02T09:50:43.237Z,46.50
2018-06-02T09:53:11.637Z,46.41
2018-06-02T09:55:40.803Z,46.18
2018-06-02T09:58:09.186Z,45.97
2018-06-02T10:00:38.342Z,45.59
2018-06-02T10:03:06.679Z,44.35
2018-06-02T10:05:35.053Z,43.47
2018-06-02T10:08:04.185Z,42.58
2018-06-02T10:10:32.601Z,42.75
2018-06-02T10:13:00.977Z,40.46
2018-06-02T10:15:29.335Z,40.41
2018-06-02T10:17:57.666Z,40.63
2018-06-02T10:20:27.047Z,41.72
2018-06-02T10:22:55.435Z,44.51
2018-06-02T10:25:24.710Z,44.64
2018-06-02T10:27:53.089Z,46.03
2018-06-02T10:30:21.521Z,46.36
2018-06-02T10:32:49.864Z,47.24
2018-06-02T10:35:18.305Z,47.47
2018-06-02T10:37:46.821Z,48.85
2018-06-02T10:40:15.221Z,49.29
2018-06-02T10:42:43.864Z,49.75
2018-06-02T10:45:12.730Z,50.02
2018-06-02T10:47:41.599Z,50.16
2018-06-02T10:50:10.049Z,49.03
2018-06-02T10:52:39.933Z,49.00
2018-06-02T10:55:08.347Z,49.56
2018-06-02T10:57:37.451Z,48.86
2018-06-02T11:00:07.066Z,48.96
2018-06-02T11:02:35.567Z,49.62
2018-06-02T11:05:09.633Z,50.29
2018-06-02T11:07:38.146Z,49.22
2018-06-02T11:10:06.711Z,50.28
2018-06-02T11:12:36.115Z,49.42
2018-06-02T11:15:05.557Z,48.38
2018-06-02T11:17:35.051Z,47.89
2018-06-02T11:20:04.835Z,49.22
2018-06-02T11:22:33.983Z,49.78
2018-06-02T11:25:02.419Z,49.69
2018-06-02T11:27:31.530Z,50.54
2018-06-02T11:30:00.007Z,50.80
2018-06-02T11:32:29.975Z,51.06
2018-06-02T11:35:03.004Z,51.59
2018-06-02T11:37:31.376Z,51.26
2018-06-02T11:40:00.498Z,51.17
2018-06-02T11:42:28.966Z,50.65
2018-06-02T11:45:10.870Z,49.36
2018-06-02T11:47:39.385Z,49.04
2018-06-02T11:50:08.178Z,48.01
2018-06-02T11:52:36.563Z,48.55
2018-06-02T11:55:05.074Z,49.93
2018-06-02T11:57:34.466Z,49.56
2018-06-02T12:00:03.664Z,48.30
2018-06-02T12:02:33.166Z,49.74
2018-06-02T12:05:01.571Z,50.27
2018-06-02T12:07:30.102Z,50.67
2018-06-02T12:09:58.466Z,50.94
2018-06-02T12:12:27.079Z,50.47
2018-06-02T12:14:56.208Z,50.79
2018-06-02T12:17:25.746Z,50.82
2018-06-02T12:19:54.241Z,50.44
2018-06-02T12:22:22.881Z,49.28
2018-06-02T12:24:51.298Z,49.16
2018-06-02T12:27:20.497Z,48.79
2018-06-02T12:29:48.958Z,49.36
2018-06-02T12:32:18.069Z,50.29
2018-06-02T12:34:46.720Z,51.14
2018-06-02T12:37:15.340Z,51.01
2018-06-02T12:39:43.754Z,51.36
2018-06-02T12:42:17.880Z,51.53
2018-06-02T12:44:46.377Z,51.41
2018-06-02T12:47:14.750Z,51.53
2018-06-02T12:49:44.051Z,50.94
2018-06-02T12:52:13.006Z,49.81
2018-06-02T12:54:41.442Z,50.75
2018-06-02T12:57:11.493Z,50.66
2018-06-02T12:59:39.978Z,49.73
2018-06-02T13:02:08.408Z,50.09
2018-06-02T13:04:36.806Z,49.28
2018-06-02T13:07:05.172Z,50.30
2018-06-02T13:09:45.293Z,50.39
2018-06-02T13:12:14.376Z,51.39
2018-06-02T13:14:42.812Z,51.53
2018-06-02T13:17:11.108Z,51.68
2018-06-02T13:19:39.462Z,51.56
2018-06-02T13:22:07.840Z,50.69
2018-06-02T13:24:36.171Z,50.09
2018-06-02T13:27:04.583Z,50.43
2018-06-02T13:29:32.947Z,50.15
2018-06-02T13:32:01.318Z,49.85
2018-06-02T13:34:30.451Z,49.99
2018-06-02T13:36:58.786Z,49.98
2018-06-02T13:39:27.148Z,50.75
2018-06-02T13:41:55.500Z,51.33
2018-06-02T13:44:23.828Z,52.16
2018-06-02T13:46:52.980Z,52.36
2018-06-02T13:49:21.334Z,50.96
2018-06-02T13:51:49.723Z,51.64
2018-06-02T13:54:18.056Z,51.79
2018-06-02T13:56:46.454Z,52.14
2018-06-02T13:59:14.856Z,51.92
2018-06-02T14:01:43.225Z,52.20
2018-06-02T14:04:11.563Z,52.87
2018-06-02T14:06:40.730Z,53.44
2018-06-02T14:09:10.049Z,53.99
2018-06-02T14:11:38.442Z,54.65
2018-06-02T14:14:07.661Z,54.79
2018-06-02T14:16:36.054Z,55.08
2018-06-02T14:19:04.390Z,55.46
2018-06-02T14:21:33.528Z,55.60
2018-06-02T14:24:01.865Z,55.55
2018-06-02T14:26:31.025Z,54.78
2018-06-02T14:28:59.367Z,53.64
2018-06-02T14:31:27.735Z,52.46
2018-06-02T14:33:56.061Z,51.57
2018-06-02T14:36:24.461Z,51.25
2018-06-02T14:38:52.822Z,50.87
2018-06-02T14:41:21.160Z,51.12
2018-06-02T14:43:49.547Z,51.54
2018-06-02T14:46:17.963Z,52.26
2018-06-02T14:48:46.307Z,53.39
2018-06-02T14:51:14.709Z,53.71
2018-06-02T14:53:43.150Z,53.75
2018-06-02T14:56:12.353Z,54.04
2018-06-02T14:58:40.727Z,54.59
2018-06-02T15:01:09.067Z,55.43
2018-06-02T15:03:37.443Z,57.09
2018-06-02T15:06:08.538Z,57.26
2018-06-02T15:08:36.933Z,57.64
2018-06-02T15:11:05.316Z,58.37
2018-06-02T15:13:34.356Z,58.29
2018-06-02T15:16:02.677Z,58.04
2018-06-02T15:18:31.063Z,58.01
2018-06-02T15:20:59.412Z,58.02
2018-06-02T15:23:27.799Z,58.13
2018-06-02T15:25:56.139Z,58.90
2018-06-02T15:28:25.284Z,59.65
2018-06-02T15:30:53.603Z,59.48
2018-06-02T15:33:22.737Z,59.78
2018-06-02T15:35:51.078Z,59.98
2018-06-02T15:38:20.209Z,59.97
2018-06-02T15:40:48.593Z,60.85
2018-06-02T15:43:16.969Z,61.77
2018-06-02T15:45:45.361Z,62.33
2018-06-02T15:48:13.783Z,63.31
2018-06-02T15:50:42.189Z,64.22
2018-06-02T15:53:10.573Z,64.32
2018-06-02T15:55:38.928Z,63.26
2018-06-02T15:58:08.058Z,63.74
2018-06-02T16:00:41.730Z,65.08
2018-06-02T16:03:14.627Z,67.60
2018-06-02T16:05:46.637Z,71.16
2018-06-02T16:08:16.333Z,76.55
2018-06-02T16:10:44.683Z,80.37
2018-06-02T16:13:47.716Z,83.42
2018-06-02T16:16:17.825Z,86.00
2018-06-02T16:18:47.645Z,87.46
2018-06-02T16:21:17.635Z,88.83
2018-06-02T16:23:47.077Z,89.14
2018-06-02T16:26:16.934Z,89.86
2018-06-02T16:28:47.869Z,90.56
2018-06-02T16:31:18.965Z,90.31
2018-06-02T16:33:49.460Z,90.83
2018-06-02T16:36:18.934Z,91.23
2018-06-02T16:38:48.740Z,92.06
2018-06-02T16:41:18.180Z,91.61
2018-06-02T16:43:48.366Z,91.79
2018-06-02T16:46:18.240Z,92.00
2018-06-02T16:48:48.129Z,91.79
2018-06-02T16:51:17.894Z,92.19
2018-06-02T16:53:47.439Z,92.04
2018-06-02T16:56:16.855Z,92.46
2018-06-02T16:58:46.656Z,92.02
2018-06-02T17:01:16.416Z,91.82
2018-06-02T17:03:46.281Z,92.33
2018-06-02T17:06:16.094Z,92.16
2018-06-02T17:08:56.384Z,92.49
2018-06-02T17:11:26.440Z,91.94
2018-06-02T17:13:56.748Z,90.93
2018-06-02T17:16:27.256Z,91.54
2018-06-02T17:18:57.052Z,91.18
2018-06-02T17:21:26.948Z,89.72
2018-06-02T17:24:02.184Z,89.04
2018-06-02T17:26:32.380Z,88.70
2018-06-02T17:29:02.784Z,88.58
2018-06-02T17:31:32.692Z,89.34
2018-06-02T17:34:02.735Z,89.12
2018-06-02T17:36:32.858Z,89.32
2018-06-02T17:39:02.774Z,88.90
2018-06-02T17:41:32.546Z,89.34
2018-06-02T17:44:02.546Z,88.78
2018-06-02T17:46:33.099Z,88.87
2018-06-02T17:49:03.026Z,89.33
2018-06-02T17:51:33.116Z,89.23
2018-06-02T17:54:02.903Z,89.71
2018-06-02T17:56:33.266Z,89.89
2018-06-02T17:59:04.185Z,89.32
2018-06-02T18:01:35.010Z,90.29
2018-06-02T18:04:09.022Z,90.20
2018-06-02T18:06:44.057Z,89.83
2018-06-02T18:09:14.423Z,90.62
2018-06-02T18:11:44.784Z,90.53
2018-06-02T18:14:15.227Z,90.25
2018-06-02T18:16:45.977Z,90.71
2018-06-02T18:19:16.146Z,91.17
2018-06-02T18:21:45.592Z,91.54
2018-06-02T18:24:16.055Z,92.38
2018-06-02T18:26:48.820Z,92.06
2018-06-02T18:29:18.850Z,92.64
2018-06-02T18:31:49.441Z,92.48
2018-06-02T18:34:19.278Z,92.99
2018-06-02T18:36:49.031Z,93.42
2018-06-02T18:39:18.934Z,92.90
2018-06-02T18:41:48.767Z,93.30
2018-06-02T18:44:18.583Z,93.41
2018-06-02T18:46:48.485Z,92.94
2018-06-02T18:49:19.209Z,93.21
2018-06-02T18:51:49.063Z,93.35
2018-06-02T18:54:18.906Z,93.82
2018-06-02T18:56:49.582Z,94.01
2018-06-02T18:59:19.603Z,93.64
2018-06-02T19:01:49.550Z,94.16
2018-06-02T19:04:19.650Z,94.27
2018-06-02T19:06:49.754Z,94.48
2018-06-02T19:09:21.322Z,93.98
2018-06-02T19:11:51.248Z,94.55
2018-06-02T19:14:22.049Z,94.76
2018-06-02T19:16:52.005Z,94.53
2018-06-02T19:19:22.222Z,94.73
2018-06-02T19:21:52.537Z,95.33
2018-06-02T19:24:23.619Z,95.05
2018-06-02T19:26:53.895Z,95.32
2018-06-02T19:29:24.667Z,95.24
2018-06-02T19:31:55.989Z,95.50
2018-06-02T19:34:26.928Z,95.13
2018-06-02T19:36:58.726Z,95.62
2018-06-02T19:39:28.482Z,95.36
2018-06-02T19:41:58.374Z,95.68
2018-06-02T19:44:28.778Z,95.95
2018-06-02T19:46:58.706Z,95.87
2018-06-02T19:49:28.202Z,95.99
2018-06-02T19:51:58.153Z,95.97
2018-06-02T19:54:27.664Z,95.97
2018-06-02T19:56:57.501Z,96.03
2018-06-02T19:59:28.312Z,96.54
2018-06-02T20:01:58.106Z,96.51
2018-06-02T20:04:29.484Z,96.37
2018-06-02T20:06:59.025Z,96.14
2018-06-02T20:09:28.522Z,96.77
2018-06-02T20:11:58.644Z,96.69
2018-06-02T20:14:28.290Z,96.16
2018-06-02T20:16:58.110Z,96.17
2018-06-02T20:19:27.506Z,96.31
2018-06-02T20:21:57.330Z,96.26
2018-06-02T20:24:26.743Z,96.28
2018-06-02T20:26:56.587Z,96.43
2018-06-02T20:29:26.362Z,96.86
2018-06-02T20:31:56.342Z,96.75
2018-06-02T20:34:26.112Z,96.71
2018-06-02T20:36:55.920Z,96.85
2018-06-02T20:39:25.728Z,96.59
2018-06-02T20:41:55.734Z,96.78
2018-06-02T20:44:25.531Z,96.67
2018-06-02T20:46:55.340Z,96.84
2018-06-02T20:49:25.109Z,96.58
2018-06-02T20:51:54.873Z,96.83
2018-06-02T20:54:24.630Z,97.27
2018-06-02T20:56:54.579Z,97.66
2018-06-02T20:59:24.276Z,97.98
2018-06-02T21:01:54.083Z,98.00
2018-06-02T21:04:23.453Z,98.11
2018-06-02T21:06:53.262Z,98.60
2018-06-02T21:09:22.658Z,98.71
2018-06-02T21:11:52.510Z,98.21
2018-06-02T21:14:22.261Z,98.24
2018-06-02T21:16:52.053Z,98.04
2018-06-02T21:19:21.866Z,98.50
2018-06-02T21:21:51.678Z,98.52
2018-06-02T21:24:21.488Z,98.58
2018-06-02T21:26:51.203Z,98.36
2018-06-02T21:29:20.965Z,98.15
2018-06-02T21:31:50.716Z,98.51
2018-06-02T21:34:20.546Z,97.88
2018-06-02T21:36:50.286Z,98.07
2018-06-02T21:39:20.131Z,98.10
2018-06-02T21:41:50.001Z,97.85
2018-06-02T21:44:19.818Z,97.90
2018-06-02T21:46:49.600Z,97.64
2018-06-02T21:49:19.090Z,97.80
2018-06-02T21:51:48.805Z,97.32
2018-06-02T21:54:18.626Z,97.75
2018-06-02T21:56:48.340Z,97.43
2018-06-02T21:59:18.865Z,97.45
2018-06-02T22:01:48.618Z,97.45
2018-06-02T22:04:18.434Z,97.49
2018-06-02T22:06:48.394Z,97.45
2018-06-02T22:09:18.186Z,97.10
2018-06-02T22:11:48.114Z,97.63
2018-06-02T22:14:18.000Z,97.58
2018-06-02T22:16:48.068Z,97.66
2018-06-02T22:19:17.881Z,97.58
2018-06-02T22:21:47.673Z,98.10
2018-06-02T22:24:17.558Z,98.00
2018-06-02T22:26:47.353Z,97.67
2018-06-02T22:29:17.144Z,97.99
2018-06-02T22:31:46.972Z,97.70
2018-06-02T22:34:16.842Z,97.31
2018-06-02T22:36:46.624Z,97.33
2018-06-02T22:39:16.362Z,97.88
2018-06-02T22:41:46.193Z,97.88
2018-06-02T22:44:15.921Z,98.22
2018-06-02T22:46:45.719Z,97.99
2018-06-02T22:49:15.505Z,97.95
2018-06-02T22:52:01.302Z,98.26
2018-06-02T22:54:31.275Z,98.32
2018-06-02T22:57:01.222Z,97.87
2018-06-02T22:59:31.181Z,97.91
2018-06-02T23:02:01.122Z,98.39
2018-06-02T23:04:31.103Z,98.44
2018-06-02T23:07:01.135Z,98.43
2018-06-02T23:09:30.940Z,98.16
2018-06-02T23:12:00.784Z,98.17
2018-06-02T23:14:30.645Z,98.29
2018-06-02T23:17:00.133Z,98.63
2018-06-02T23:19:29.842Z,98.16
2018-06-02T23:21:59.706Z,98.63
2018-06-02T23:24:29.424Z,98.48
2018-06-02T23:26:59.247Z,98.53
2018-06-02T23:29:29.006Z,98.10
2018-06-02T23:31:58.791Z,98.25
2018-06-02T23:34:28.567Z,98.10
2018-06-02T23:36:58.322Z,98.40
2018-06-02T23:39:28.066Z,97.96
2018-06-02T23:41:57.811Z,98.17
2018-06-02T23:44:27.547Z,97.71
2018-06-02T23:46:57.371Z,97.40
2018-06-02T23:49:27.140Z,97.37
2018-06-02T23:51:56.938Z,97.85
2018-06-02T23:54:26.663Z,97.80
2018-06-02T23:56:56.460Z,97.85
2018-06-02T23:59:26.214Z,97.55
